createdAt,value
2023-03-26T00:01:27.789Z,24.19
2023-03-26T00:05:27.772Z,24.18
2023-03-26T00:09:27.730Z,24.18
2023-03-26T00:13:27.699Z,24.16
2023-03-26T00:17:27.680Z,24.16
2023-03-26T00:21:27.693Z,24.15
2023-03-26T00:25:27.642Z,24.14
2023-03-26T00:29:27.602Z,24.14
2023-03-26T00:33:27.625Z,24.13
2023-03-26T00:37:27.591Z,24.13
2023-03-26T00:41:27.578Z,24.11
2023-03-26T00:45:27.578Z,24.12
2023-03-26T00:49:27.601Z,24.11
2023-03-26T00:53:27.570Z,24.10
2023-03-26T00:57:35.601Z,24.10
2023-03-26T01:01:29.135Z,24.08
2023-03-26T01:05:27.517Z,24.08
2023-03-26T01:09:27.469Z,24.07
2023-03-26T01:13:27.457Z,24.06
2023-03-26T01:17:27.395Z,24.06
2023-03-26T01:21:27.358Z,24.05
2023-03-26T01:25:27.301Z,24.04
2023-03-26T01:29:27.240Z,24.04
2023-03-26T01:33:27.299Z,24.02
2023-03-26T01:37:27.202Z,24.03
2023-03-26T01:41:27.237Z,24.02
2023-03-26T01:45:27.281Z,24.01
2023-03-26T01:49:27.348Z,24.00
2023-03-26T01:53:27.341Z,23.99
2023-03-26T01:57:27.403Z,23.99
2023-03-26T02:01:27.490Z,23.98
2023-03-26T02:05:27.569Z,23.98
2023-03-26T02:09:27.641Z,23.97
2023-03-26T02:13:27.649Z,23.96
2023-03-26T02:17:27.748Z,23.95
2023-03-26T02:21:27.797Z,23.96
2023-03-26T02:25:27.882Z,23.95
2023-03-26T02:29:27.964Z,23.93
2023-03-26T02:33:28.047Z,23.93
2023-03-26T02:37:28.117Z,23.92
2023-03-26T02:41:28.188Z,23.91
2023-03-26T02:45:28.345Z,23.90
2023-03-26T02:49:28.361Z,23.90
2023-03-26T02:53:28.506Z,23.89
2023-03-26T02:57:28.593Z,23.88
2023-03-26T03:01:28.700Z,23.88
2023-03-26T03:05:28.887Z,23.88
2023-03-26T03:09:28.890Z,23.87
2023-03-26T03:13:29.001Z,23.87
2023-03-26T03:17:29.198Z,23.85
2023-03-26T03:21:29.340Z,23.84
2023-03-26T03:25:29.368Z,23.83
2023-03-26T03:29:29.522Z,23.84
2023-03-26T03:33:29.600Z,23.83
2023-03-26T03:37:29.726Z,23.82
2023-03-26T03:41:29.817Z,23.81
2023-03-26T03:45:29.953Z,23.81
2023-03-26T03:49:30.051Z,23.80
2023-03-26T03:53:30.169Z,23.79
2023-03-26T03:57:30.303Z,23.79
2023-03-26T04:01:30.439Z,23.78
2023-03-26T04:05:30.577Z,23.77
2023-03-26T04:09:30.670Z,23.76
2023-03-26T04:13:30.827Z,23.76
2023-03-26T04:17:31.159Z,23.75
2023-03-26T04:21:31.128Z,23.75
2023-03-26T04:25:31.257Z,23.75
2023-03-26T04:29:31.448Z,23.73
2023-03-26T04:33:31.555Z,23.73
2023-03-26T04:37:31.685Z,23.73
2023-03-26T04:41:31.835Z,23.72
2023-03-26T04:45:32.024Z,23.71
2023-03-26T04:49:32.162Z,23.70
2023-03-26T04:53:32.317Z,23.70
2023-03-26T04:57:32.518Z,23.70
2023-03-26T05:01:32.749Z,23.70
2023-03-26T05:05:32.844Z,23.68
2023-03-26T05:09:33.058Z,23.68
2023-03-26T05:13:33.173Z,23.68
2023-03-26T05:17:33.339Z,23.67
2023-03-26T05:21:33.539Z,23.67
2023-03-26T05:25:33.663Z,23.67
2023-03-26T05:29:33.837Z,23.66
2023-03-26T05:33:34.137Z,23.66
2023-03-26T05:37:34.156Z,23.66
2023-03-26T05:41:34.353Z,23.66
2023-03-26T05:45:34.526Z,23.66
2023-03-26T05:49:34.691Z,23.65
2023-03-26T05:53:34.932Z,23.66
2023-03-26T05:57:34.979Z,23.66
2023-03-26T06:01:35.177Z,23.66
2023-03-26T06:05:35.323Z,23.66
2023-03-26T06:09:35.476Z,23.67
2023-03-26T06:13:35.667Z,23.66
2023-03-26T06:17:35.825Z,23.68
2023-03-26T06:21:35.928Z,23.69
2023-03-26T06:25:36.109Z,23.69
2023-03-26T06:29:36.249Z,23.70
2023-03-26T06:33:36.403Z,23.71
2023-03-26T06:37:36.521Z,23.72
2023-03-26T06:41:36.634Z,23.74
2023-03-26T06:45:36.834Z,23.75
2023-03-26T06:49:36.941Z,23.77
2023-03-26T06:53:37.120Z,23.78
2023-03-26T06:57:37.263Z,23.79
2023-03-26T07:01:37.433Z,23.80
2023-03-26T07:05:37.516Z,23.82
2023-03-26T07:09:37.643Z,23.84
2023-03-26T07:13:37.760Z,23.86
2023-03-26T07:17:37.894Z,23.92
2023-03-26T07:21:37.902Z,23.98
2023-03-26T07:25:37.976Z,24.01
2023-03-26T07:29:38.250Z,24.04
2023-03-26T07:33:38.136Z,24.01
2023-03-26T07:37:38.115Z,24.00
2023-03-26T07:41:38.195Z,23.99
2023-03-26T07:45:38.326Z,23.99
2023-03-26T07:49:38.330Z,24.03
2023-03-26T07:53:38.364Z,24.06
2023-03-26T07:57:38.433Z,24.09
2023-03-26T08:01:38.455Z,24.12
2023-03-26T08:05:38.445Z,24.15
2023-03-26T08:09:38.468Z,24.17
2023-03-26T08:13:38.481Z,24.18
2023-03-26T08:17:38.513Z,24.17
2023-03-26T08:21:38.484Z,24.18
2023-03-26T08:25:38.561Z,24.17
2023-03-26T08:29:38.452Z,24.19
2023-03-26T08:33:38.578Z,24.23
2023-03-26T08:37:38.400Z,24.28
2023-03-26T08:41:38.373Z,24.30
2023-03-26T08:45:38.452Z,24.33
2023-03-26T08:49:38.526Z,24.33
2023-03-26T08:53:38.575Z,24.34
2023-03-26T08:57:38.691Z,24.37
2023-03-26T09:01:38.904Z,24.37
2023-03-26T09:05:39.063Z,24.38
2023-03-26T09:09:39.306Z,24.37
2023-03-26T09:13:39.498Z,24.36
2023-03-26T09:17:39.802Z,24.36
2023-03-26T09:21:39.927Z,24.36
2023-03-26T09:25:40.111Z,24.36
2023-03-26T09:29:40.178Z,24.36
2023-03-26T09:33:40.364Z,24.38
2023-03-26T09:37:56.262Z,24.39
2023-03-26T09:41:41.493Z,24.41
2023-03-26T09:45:40.491Z,24.44
2023-03-26T09:49:40.437Z,24.45
2023-03-26T09:53:40.431Z,24.47
2023-03-26T09:57:40.403Z,24.50
2023-03-26T10:01:40.416Z,24.51
2023-03-26T10:05:40.384Z,24.54
2023-03-26T10:09:40.269Z,24.57
2023-03-26T10:13:40.221Z,24.59
2023-03-26T10:17:40.313Z,24.60
2023-03-26T10:21:40.166Z,24.62
2023-03-26T10:25:40.141Z,24.62
2023-03-26T10:29:40.358Z,24.62
2023-03-26T10:33:40.567Z,24.61
2023-03-26T10:37:40.736Z,24.62
2023-03-26T10:41:40.925Z,24.60
2023-03-26T10:45:41.159Z,24.60
2023-03-26T10:49:41.350Z,24.60
2023-03-26T10:53:41.582Z,24.61
2023-03-26T10:57:41.804Z,24.61
2023-03-26T11:01:42.126Z,24.63
2023-03-26T11:05:42.251Z,24.65
2023-03-26T11:09:42.371Z,24.66
2023-03-26T11:13:42.641Z,24.68
2023-03-26T11:17:42.834Z,24.72
2023-03-26T11:21:42.952Z,24.75
2023-03-26T11:25:43.167Z,24.78
2023-03-26T11:29:43.292Z,24.80
2023-03-26T11:33:45.413Z,24.82
2023-03-26T11:37:43.479Z,24.83
2023-03-26T11:41:43.457Z,24.86
2023-03-26T11:45:43.423Z,24.89
2023-03-26T11:49:43.388Z,24.92
2023-03-26T11:53:43.376Z,24.93
2023-03-26T11:57:43.294Z,24.93
2023-03-26T12:01:43.288Z,24.92
2023-03-26T12:05:43.231Z,24.91
2023-03-26T12:09:43.241Z,24.89
2023-03-26T12:13:43.189Z,24.89
2023-03-26T12:17:43.266Z,24.88
2023-03-26T12:21:43.375Z,24.85
2023-03-26T12:25:43.585Z,24.84
2023-03-26T12:29:43.766Z,24.83
2023-03-26T12:33:43.976Z,24.81
2023-03-26T12:37:44.171Z,24.80
2023-03-26T12:44:45.206Z,24.78
2023-03-26T12:45:45.370Z,24.76
2023-03-26T12:49:45.272Z,24.75
2023-03-26T12:53:44.252Z,24.73
2023-03-26T12:57:44.216Z,24.72
2023-03-26T13:01:44.291Z,24.71
2023-03-26T13:05:44.168Z,24.70
2023-03-26T13:09:44.117Z,24.68
2023-03-26T13:13:44.048Z,24.67
2023-03-26T13:17:44.175Z,24.66
2023-03-26T13:21:44.388Z,24.65
2023-03-26T13:25:44.516Z,24.63
2023-03-26T13:29:44.653Z,24.62
2023-03-26T13:33:44.883Z,24.60
2023-03-26T13:37:45.095Z,24.58
2023-03-26T13:41:45.309Z,24.57
2023-03-26T13:45:45.525Z,24.57
2023-03-26T13:49:45.745Z,24.55
2023-03-26T13:53:46.019Z,24.55
2023-03-26T13:57:46.176Z,24.53
2023-03-26T14:01:46.552Z,24.51
2023-03-26T14:05:46.596Z,24.52
2023-03-26T14:09:46.587Z,24.50
2023-03-26T14:13:46.508Z,24.50
2023-03-26T14:17:46.568Z,24.49
2023-03-26T14:21:46.455Z,24.49
2023-03-26T14:25:46.404Z,24.47
2023-03-26T14:29:57.010Z,24.46
2023-03-26T14:33:47.325Z,24.46
2023-03-26T14:37:46.357Z,24.44
2023-03-26T14:41:46.331Z,24.44
2023-03-26T14:45:46.312Z,24.42
2023-03-26T14:49:46.243Z,24.42
2023-03-26T14:53:46.196Z,24.39
2023-03-26T14:57:46.201Z,24.39
2023-03-26T15:01:46.189Z,24.38
2023-03-26T15:05:46.095Z,24.37
2023-03-26T15:09:46.062Z,24.36
2023-03-26T15:13:46.050Z,24.35
2023-03-26T15:17:46.243Z,24.34
2023-03-26T15:21:46.183Z,24.33
2023-03-26T15:25:46.168Z,24.32
2023-03-26T15:29:46.158Z,24.30
2023-03-26T15:33:46.111Z,24.30
2023-03-26T15:37:46.047Z,24.27
2023-03-26T15:41:46.024Z,24.28
2023-03-26T15:45:46.057Z,24.25
2023-03-26T15:49:45.971Z,24.24
2023-03-26T15:53:45.919Z,24.23
2023-03-26T15:57:45.873Z,24.23
2023-03-26T16:01:45.933Z,24.22
2023-03-26T16:05:45.796Z,24.21
2023-03-26T16:09:45.779Z,24.21
2023-03-26T16:13:45.757Z,24.19
2023-03-26T16:17:45.676Z,24.19
2023-03-26T16:21:45.697Z,24.17
2023-03-26T16:25:45.622Z,24.16
2023-03-26T16:29:45.561Z,24.16
2023-03-26T16:33:45.567Z,24.15
2023-03-26T16:37:45.561Z,24.14
2023-03-26T16:41:45.524Z,24.12
2023-03-26T16:45:45.436Z,24.11
2023-03-26T16:49:45.426Z,24.11
2023-03-26T16:53:45.398Z,24.10
2023-03-26T16:57:45.364Z,24.09
2023-03-26T17:01:45.306Z,24.08
2023-03-26T17:05:45.278Z,24.07
2023-03-26T17:09:45.230Z,24.06
2023-03-26T17:13:45.230Z,24.04
2023-03-26T17:17:45.341Z,24.05
2023-03-26T17:21:46.359Z,24.03
2023-03-26T17:25:45.322Z,24.02
2023-03-26T17:29:45.252Z,24.02
2023-03-26T17:33:45.335Z,24.00
2023-03-26T17:37:45.304Z,23.99
2023-03-26T17:41:45.299Z,23.98
2023-03-26T17:45:45.378Z,23.97
2023-03-26T17:49:46.420Z,23.95
2023-03-26T17:53:45.288Z,23.95
2023-03-26T17:57:45.278Z,23.94
2023-03-26T18:01:45.788Z,23.93
2023-03-26T18:05:45.199Z,23.93
2023-03-26T18:09:45.129Z,23.92
2023-03-26T18:13:45.124Z,23.91
2023-03-26T18:17:45.150Z,23.90
2023-03-26T18:21:45.685Z,23.89
2023-03-26T18:25:45.198Z,23.88
2023-03-26T18:29:45.279Z,23.86
2023-03-26T18:33:45.362Z,23.86
2023-03-26T18:37:45.378Z,23.85
2023-03-26T18:41:45.437Z,23.84
2023-03-26T18:45:45.568Z,23.84
2023-03-26T18:49:45.637Z,23.83
2023-03-26T18:53:45.768Z,23.82
2023-03-26T18:57:45.863Z,23.81
2023-03-26T19:01:47.362Z,23.80
2023-03-26T19:05:46.050Z,23.79
2023-03-26T19:09:46.182Z,23.78
2023-03-26T19:13:46.286Z,23.77
2023-03-26T19:17:46.441Z,23.77
2023-03-26T19:21:46.504Z,23.76
2023-03-26T19:25:46.650Z,23.75
2023-03-26T19:29:46.766Z,23.75
2023-03-26T19:33:46.885Z,23.75
2023-03-26T19:37:48.455Z,23.74
2023-03-26T19:41:47.244Z,23.73
2023-03-26T19:45:59.675Z,23.72
2023-03-26T19:49:48.237Z,23.72
2023-03-26T19:53:47.259Z,23.70
2023-03-26T19:57:47.177Z,23.70
2023-03-26T20:01:47.397Z,23.69
2023-03-26T20:05:47.468Z,23.68
2023-03-26T20:09:47.585Z,23.68
2023-03-26T20:13:47.629Z,23.67
2023-03-26T20:17:47.559Z,23.66
2023-03-26T20:21:47.506Z,23.65
2023-03-26T20:25:47.498Z,23.65
2023-03-26T20:29:47.705Z,23.65
2023-03-26T20:33:47.864Z,23.64
2023-03-26T20:37:47.970Z,23.64
2023-03-26T20:41:48.105Z,23.64
2023-03-26T20:45:48.265Z,23.63
2023-03-26T20:49:48.435Z,23.62
2023-03-26T20:53:48.601Z,23.61
2023-03-26T20:57:48.825Z,23.60
2023-03-26T21:01:48.972Z,23.60
2023-03-26T21:05:49.153Z,23.60
2023-03-26T21:09:49.301Z,23.59
2023-03-26T21:13:49.512Z,23.58
2023-03-26T21:17:49.723Z,23.58
2023-03-26T21:21:49.870Z,23.57
2023-03-26T21:25:50.052Z,23.56
2023-03-26T21:29:50.236Z,23.56
2023-03-26T21:33:50.472Z,23.55
2023-03-26T21:37:50.642Z,23.55
2023-03-26T21:42:04.845Z,23.54
2023-03-26T21:45:51.795Z,23.54
2023-03-26T21:49:50.738Z,23.53
2023-03-26T21:53:50.845Z,23.53
2023-03-26T21:57:51.052Z,23.52
2023-03-26T22:01:51.356Z,23.52
2023-03-26T22:05:51.233Z,23.51
2023-03-26T22:09:51.230Z,23.51
2023-03-26T22:13:51.164Z,23.50
2023-03-26T22:17:51.224Z,23.49
2023-03-26T22:21:51.101Z,23.50
2023-03-26T22:25:51.085Z,23.49
2023-03-26T22:29:50.999Z,23.48
2023-03-26T22:33:50.976Z,23.47
2023-03-26T22:37:50.940Z,23.47
2023-03-26T22:41:50.939Z,23.46
2023-03-26T22:45:50.879Z,23.46
2023-03-26T22:49:50.832Z,23.45
2023-03-26T22:53:50.850Z,23.46
2023-03-26T22:57:50.771Z,23.45
2023-03-26T23:01:50.811Z,23.44
2023-03-26T23:05:50.684Z,23.44
2023-03-26T23:09:50.671Z,23.43
2023-03-26T23:13:50.604Z,23.42
2023-03-26T23:17:54.377Z,23.42
2023-03-26T23:21:50.600Z,23.42
2023-03-26T23:25:50.520Z,23.41
2023-03-26T23:29:50.496Z,23.40
2023-03-26T23:33:50.599Z,23.40
2023-03-26T23:37:50.699Z,23.38
2023-03-26T23:41:50.667Z,23.38
2023-03-26T23:45:50.678Z,23.38
2023-03-26T23:49:50.592Z,23.37
2023-03-26T23:53:50.529Z,23.37
2023-03-26T23:57:50.468Z,23.37
